sensor_id;sensor_type;location;lat;lon;timestamp;temperature;humidity
29803;DHT22;16702;50.898;4.662;2023-01-13T00:01:36;10.80;99.90
29803;DHT22;16702;50.898;4.662;2023-01-13T00:04:08;10.90;99.90
29803;DHT22;16702;50.898;4.662;2023-01-13T00:06:39;10.80;99.90
29803;DHT22;16702;50.898;4.662;2023-01-13T00:09:09;10.80;99.90
29803;DHT22;16702;50.898;4.662;2023-01-13T00:11:39;10.80;99.90
29803;DHT22;16702;50.898;4.662;2023-01-13T00:14:12;10.80;99.90
29803;DHT22;16702;50.898;4.662;2023-01-13T00:16:43;10.80;99.90
29803;DHT22;16702;50.898;4.662;2023-01-13T00:19:13;10.80;99.90
29803;DHT22;16702;50.898;4.662;2023-01-13T00:21:44;10.80;99.90
29803;DHT22;16702;50.898;4.662;2023-01-13T00:24:14;10.80;99.90
29803;DHT22;16702;50.898;4.662;2023-01-13T00:26:44;10.80;99.90
29803;DHT22;16702;50.898;4.662;2023-01-13T00:29:17;10.80;99.90
29803;DHT22;16702;50.898;4.662;2023-01-13T00:31:48;10.70;99.90
29803;DHT22;16702;50.898;4.662;2023-01-13T00:34:19;10.70;99.90
29803;DHT22;16702;50.898;4.662;2023-01-13T00:36:49;10.70;99.90
29803;DHT22;16702;50.898;4.662;2023-01-13T00:39:19;10.70;99.90
29803;DHT22;16702;50.898;4.662;2023-01-13T00:41:50;10.50;99.90
29803;DHT22;16702;50.898;4.662;2023-01-13T00:44:35;10.60;99.90
29803;DHT22;16702;50.898;4.662;2023-01-13T00:47:05;10.60;99.90
29803;DHT22;16702;50.898;4.662;2023-01-13T00:49:36;10.60;99.90
29803;DHT22;16702;50.898;4.662;2023-01-13T00:52:06;10.50;99.90
29803;DHT22;16702;50.898;4.662;2023-01-13T00:54:37;10.60;99.90
29803;DHT22;16702;50.898;4.662;2023-01-13T00:57:07;10.50;99.90
29803;DHT22;16702;50.898;4.662;2023-01-13T00:59:40;10.50;99.90
29803;DHT22;16702;50.898;4.662;2023-01-13T01:02:10;10.50;99.90
29803;DHT22;16702;50.898;4.662;2023-01-13T01:04:41;10.50;99.90
29803;DHT22;16702;50.898;4.662;2023-01-13T01:07:14;10.50;99.90
29803;DHT22;16702;50.898;4.662;2023-01-13T01:09:44;10.40;99.90
29803;DHT22;16702;50.898;4.662;2023-01-13T01:12:15;10.40;99.90
29803;DHT22;16702;50.898;4.662;2023-01-13T01:14:48;10.50;99.90
29803;DHT22;16702;50.898;4.662;2023-01-13T01:17:18;10.40;99.90
29803;DHT22;16702;50.898;4.662;2023-01-13T01:19:49;10.40;99.90
29803;DHT22;16702;50.898;4.662;2023-01-13T01:22:19;10.40;99.90
29803;DHT22;16702;50.898;4.662;2023-01-13T01:24:49;10.40;99.90
29803;DHT22;16702;50.898;4.662;2023-01-13T01:27:20;10.30;99.90
29803;DHT22;16702;50.898;4.662;2023-01-13T01:29:53;10.40;99.90
29803;DHT22;16702;50.898;4.662;2023-01-13T01:32:23;10.40;99.90
29803;DHT22;16702;50.898;4.662;2023-01-13T01:34:53;10.30;99.90
29803;DHT22;16702;50.898;4.662;2023-01-13T01:37:24;10.30;99.90
29803;DHT22;16702;50.898;4.662;2023-01-13T01:39:54;10.30;99.90
29803;DHT22;16702;50.898;4.662;2023-01-13T01:42:25;10.30;99.90
29803;DHT22;16702;50.898;4.662;2023-01-13T01:45:18;10.20;99.90
29803;DHT22;16702;50.898;4.662;2023-01-13T01:47:53;10.20;99.90
29803;DHT22;16702;50.898;4.662;2023-01-13T01:50:28;10.20;99.90
29803;DHT22;16702;50.898;4.662;2023-01-13T01:53:04;10.20;99.90
29803;DHT22;16702;50.898;4.662;2023-01-13T01:55:37;10.20;99.90
29803;DHT22;16702;50.898;4.662;2023-01-13T01:58:09;10.20;99.90
29803;DHT22;16702;50.898;4.662;2023-01-13T02:00:43;10.20;99.90
29803;DHT22;16702;50.898;4.662;2023-01-13T02:03:14;10.20;99.90
29803;DHT22;16702;50.898;4.662;2023-01-13T02:05:45;10.10;99.90
29803;DHT22;16702;50.898;4.662;2023-01-13T02:08:16;10.10;99.90
29803;DHT22;16702;50.898;4.662;2023-01-13T02:10:53;10.10;99.90
29803;DHT22;16702;50.898;4.662;2023-01-13T02:13:23;10.10;99.90
29803;DHT22;16702;50.898;4.662;2023-01-13T02:16:00;10.10;99.90
29803;DHT22;16702;50.898;4.662;2023-01-13T02:18:41;10.10;99.90
29803;DHT22;16702;50.898;4.662;2023-01-13T02:21:38;10.00;99.90
29803;DHT22;16702;50.898;4.662;2023-01-13T02:24:33;10.00;99.90
29803;DHT22;16702;50.898;4.662;2023-01-13T02:30:29;10.00;99.90
29803;DHT22;16702;50.898;4.662;2023-01-13T02:33:23;9.90;99.90
29803;DHT22;16702;50.898;4.662;2023-01-13T02:36:00;10.00;99.90
29803;DHT22;16702;50.898;4.662;2023-01-13T02:38:34;9.90;99.90
29803;DHT22;16702;50.898;4.662;2023-01-13T02:41:11;9.90;99.90
29803;DHT22;16702;50.898;4.662;2023-01-13T02:43:57;10.00;99.90
29803;DHT22;16702;50.898;4.662;2023-01-13T02:46:50;10.00;99.90
29803;DHT22;16702;50.898;4.662;2023-01-13T02:49:30;10.00;99.90
29803;DHT22;16702;50.898;4.662;2023-01-13T02:52:07;10.00;99.90
29803;DHT22;16702;50.898;4.662;2023-01-13T02:54:43;10.00;99.90
29803;DHT22;16702;50.898;4.662;2023-01-13T02:57:16;10.00;99.90
29803;DHT22;16702;50.898;4.662;2023-01-13T02:59:48;10.00;99.90
29803;DHT22;16702;50.898;4.662;2023-01-13T03:02:22;10.00;99.90
29803;DHT22;16702;50.898;4.662;2023-01-13T03:04:55;10.00;99.90
29803;DHT22;16702;50.898;4.662;2023-01-13T03:07:47;10.10;99.90
29803;DHT22;16702;50.898;4.662;2023-01-13T03:10:26;10.00;99.90
29803;DHT22;16702;50.898;4.662;2023-01-13T03:13:11;10.00;99.90
29803;DHT22;16702;50.898;4.662;2023-01-13T03:15:49;10.00;99.90
29803;DHT22;16702;50.898;4.662;2023-01-13T03:18:35;10.00;99.90
29803;DHT22;16702;50.898;4.662;2023-01-13T03:21:14;10.00;99.90
29803;DHT22;16702;50.898;4.662;2023-01-13T03:23:50;10.10;99.90
29803;DHT22;16702;50.898;4.662;2023-01-13T03:26:27;10.10;99.90
29803;DHT22;16702;50.898;4.662;2023-01-13T03:29:05;10.10;99.90
29803;DHT22;16702;50.898;4.662;2023-01-13T03:31:41;10.10;99.90
29803;DHT22;16702;50.898;4.662;2023-01-13T03:34:23;10.10;99.90
29803;DHT22;16702;50.898;4.662;2023-01-13T03:37:00;10.10;99.90
29803;DHT22;16702;50.898;4.662;2023-01-13T03:39:34;10.10;99.90
29803;DHT22;16702;50.898;4.662;2023-01-13T03:42:07;10.00;99.90
29803;DHT22;16702;50.898;4.662;2023-01-13T03:44:43;10.00;99.90
29803;DHT22;16702;50.898;4.662;2023-01-13T03:47:16;10.00;99.90
29803;DHT22;16702;50.898;4.662;2023-01-13T03:49:56;10.00;99.90
29803;DHT22;16702;50.898;4.662;2023-01-13T03:52:32;10.00;99.90
29803;DHT22;16702;50.898;4.662;2023-01-13T03:55:08;10.00;99.90
29803;DHT22;16702;50.898;4.662;2023-01-13T03:57:45;10.00;99.90
29803;DHT22;16702;50.898;4.662;2023-01-13T04:00:21;10.00;99.90
29803;DHT22;16702;50.898;4.662;2023-01-13T04:02:56;10.00;99.90
29803;DHT22;16702;50.898;4.662;2023-01-13T04:05:32;9.90;99.90
29803;DHT22;16702;50.898;4.662;2023-01-13T04:08:13;9.90;99.90
29803;DHT22;16702;50.898;4.662;2023-01-13T04:10:49;9.90;99.90
29803;DHT22;16702;50.898;4.662;2023-01-13T04:13:26;9.90;99.90
29803;DHT22;16702;50.898;4.662;2023-01-13T04:15:59;9.90;99.90
29803;DHT22;16702;50.898;4.662;2023-01-13T04:18:30;9.80;99.90
29803;DHT22;16702;50.898;4.662;2023-01-13T04:21:03;9.90;99.90
29803;DHT22;16702;50.898;4.662;2023-01-13T04:23:34;9.80;99.90
29803;DHT22;16702;50.898;4.662;2023-01-13T04:26:05;9.80;99.90
29803;DHT22;16702;50.898;4.662;2023-01-13T04:28:35;9.80;99.90
29803;DHT22;16702;50.898;4.662;2023-01-13T04:31:07;9.80;99.90
29803;DHT22;16702;50.898;4.662;2023-01-13T04:33:37;9.80;99.90
29803;DHT22;16702;50.898;4.662;2023-01-13T04:36:10;9.80;99.90
29803;DHT22;16702;50.898;4.662;2023-01-13T04:38:41;9.80;99.90
29803;DHT22;16702;50.898;4.662;2023-01-13T04:41:11;9.80;99.90
29803;DHT22;16702;50.898;4.662;2023-01-13T04:43:41;9.80;99.90
29803;DHT22;16702;50.898;4.662;2023-01-13T04:46:12;9.80;99.90
29803;DHT22;16702;50.898;4.662;2023-01-13T04:48:42;9.80;99.90
29803;DHT22;16702;50.898;4.662;2023-01-13T04:51:15;9.80;99.90
29803;DHT22;16702;50.898;4.662;2023-01-13T04:53:46;9.80;99.90
29803;DHT22;16702;50.898;4.662;2023-01-13T04:56:18;9.90;99.90
29803;DHT22;16702;50.898;4.662;2023-01-13T04:58:48;9.80;99.90
29803;DHT22;16702;50.898;4.662;2023-01-13T05:01:19;9.80;99.90
29803;DHT22;16702;50.898;4.662;2023-01-13T05:03:49;9.90;99.90
29803;DHT22;16702;50.898;4.662;2023-01-13T05:06:22;9.80;99.90
29803;DHT22;16702;50.898;4.662;2023-01-13T05:08:52;9.80;99.90
29803;DHT22;16702;50.898;4.662;2023-01-13T05:11:23;9.70;99.90
29803;DHT22;16702;50.898;4.662;2023-01-13T05:14:06;9.70;99.90
29803;DHT22;16702;50.898;4.662;2023-01-13T05:16:50;9.70;99.90
29803;DHT22;16702;50.898;4.662;2023-01-13T05:19:32;9.70;99.90
29803;DHT22;16702;50.898;4.662;2023-01-13T05:22:05;9.70;99.90
29803;DHT22;16702;50.898;4.662;2023-01-13T05:24:50;9.60;99.90
29803;DHT22;16702;50.898;4.662;2023-01-13T05:27:34;9.60;99.90
29803;DHT22;16702;50.898;4.662;2023-01-13T05:30:06;9.60;99.90
29803;DHT22;16702;50.898;4.662;2023-01-13T05:32:39;9.60;99.90
29803;DHT22;16702;50.898;4.662;2023-01-13T05:35:10;9.50;99.90
29803;DHT22;16702;50.898;4.662;2023-01-13T05:37:45;9.50;99.90
29803;DHT22;16702;50.898;4.662;2023-01-13T05:40:17;9.50;99.90
29803;DHT22;16702;50.898;4.662;2023-01-13T05:43:01;9.50;99.90
29803;DHT22;16702;50.898;4.662;2023-01-13T05:45:44;9.50;99.90
29803;DHT22;16702;50.898;4.662;2023-01-13T05:48:17;9.40;99.90
29803;DHT22;16702;50.898;4.662;2023-01-13T05:50:48;9.40;99.90
29803;DHT22;16702;50.898;4.662;2023-01-13T05:53:23;9.50;99.90
29803;DHT22;16702;50.898;4.662;2023-01-13T05:55:56;9.40;99.90
29803;DHT22;16702;50.898;4.662;2023-01-13T05:58:27;9.40;99.90
29803;DHT22;16702;50.898;4.662;2023-01-13T06:01:02;9.40;99.90
29803;DHT22;16702;50.898;4.662;2023-01-13T06:03:33;9.40;99.90
29803;DHT22;16702;50.898;4.662;2023-01-13T06:06:06;9.30;99.90
29803;DHT22;16702;50.898;4.662;2023-01-13T06:08:40;9.40;99.90
29803;DHT22;16702;50.898;4.662;2023-01-13T06:11:11;9.30;99.90
29803;DHT22;16702;50.898;4.662;2023-01-13T06:13:50;9.30;99.90
29803;DHT22;16702;50.898;4.662;2023-01-13T06:16:20;9.30;99.90
29803;DHT22;16702;50.898;4.662;2023-01-13T06:18:51;9.30;99.90
29803;DHT22;16702;50.898;4.662;2023-01-13T06:21:21;9.30;99.90
29803;DHT22;16702;50.898;4.662;2023-01-13T06:23:55;9.30;99.90
29803;DHT22;16702;50.898;4.662;2023-01-13T06:26:28;9.30;99.90
29803;DHT22;16702;50.898;4.662;2023-01-13T06:28:59;9.30;99.90
29803;DHT22;16702;50.898;4.662;2023-01-13T06:31:29;9.30;99.90
29803;DHT22;16702;50.898;4.662;2023-01-13T06:34:03;9.30;99.90
29803;DHT22;16702;50.898;4.662;2023-01-13T06:36:38;9.30;99.90
29803;DHT22;16702;50.898;4.662;2023-01-13T06:39:13;9.30;99.90
29803;DHT22;16702;50.898;4.662;2023-01-13T06:41:46;9.30;99.90
29803;DHT22;16702;50.898;4.662;2023-01-13T06:44:29;9.30;99.90
29803;DHT22;16702;50.898;4.662;2023-01-13T06:47:00;9.30;99.90
29803;DHT22;16702;50.898;4.662;2023-01-13T06:49:30;9.30;99.90
29803;DHT22;16702;50.898;4.662;2023-01-13T06:52:01;9.30;99.90
29803;DHT22;16702;50.898;4.662;2023-01-13T06:54:34;9.30;99.90
29803;DHT22;16702;50.898;4.662;2023-01-13T06:57:04;9.20;99.90
29803;DHT22;16702;50.898;4.662;2023-01-13T06:59:34;9.20;99.90
29803;DHT22;16702;50.898;4.662;2023-01-13T07:02:05;9.20;99.90
29803;DHT22;16702;50.898;4.662;2023-01-13T07:04:36;9.20;99.90
29803;DHT22;16702;50.898;4.662;2023-01-13T07:07:06;9.20;99.90
29803;DHT22;16702;50.898;4.662;2023-01-13T07:09:41;9.20;99.90
29803;DHT22;16702;50.898;4.662;2023-01-13T07:12:11;9.20;99.90
29803;DHT22;16702;50.898;4.662;2023-01-13T07:14:41;9.20;99.90
29803;DHT22;16702;50.898;4.662;2023-01-13T07:17:24;9.20;99.90
29803;DHT22;16702;50.898;4.662;2023-01-13T07:19:54;9.20;99.90
29803;DHT22;16702;50.898;4.662;2023-01-13T07:22:25;9.10;99.90
29803;DHT22;16702;50.898;4.662;2023-01-13T07:24:58;9.20;99.90
29803;DHT22;16702;50.898;4.662;2023-01-13T07:27:28;9.20;99.90
29803;DHT22;16702;50.898;4.662;2023-01-13T07:29:59;9.20;99.90
29803;DHT22;16702;50.898;4.662;2023-01-13T07:32:30;9.10;99.90
29803;DHT22;16702;50.898;4.662;2023-01-13T07:35:02;9.10;99.90
29803;DHT22;16702;50.898;4.662;2023-01-13T07:37:35;9.10;99.90
29803;DHT22;16702;50.898;4.662;2023-01-13T07:40:10;9.10;99.90
29803;DHT22;16702;50.898;4.662;2023-01-13T07:42:40;9.10;99.90
29803;DHT22;16702;50.898;4.662;2023-01-13T07:45:35;9.10;99.90
29803;DHT22;16702;50.898;4.662;2023-01-13T07:48:05;9.00;99.90
29803;DHT22;16702;50.898;4.662;2023-01-13T07:50:36;9.10;99.90
29803;DHT22;16702;50.898;4.662;2023-01-13T07:53:10;9.00;99.90
29803;DHT22;16702;50.898;4.662;2023-01-13T07:55:43;9.00;99.90
29803;DHT22;16702;50.898;4.662;2023-01-13T07:58:14;9.10;99.90
29803;DHT22;16702;50.898;4.662;2023-01-13T08:00:44;9.00;99.90
29803;DHT22;16702;50.898;4.662;2023-01-13T08:03:14;9.00;99.90
29803;DHT22;16702;50.898;4.662;2023-01-13T08:05:45;9.00;99.90
29803;DHT22;16702;50.898;4.662;2023-01-13T08:08:16;8.90;99.90
29803;DHT22;16702;50.898;4.662;2023-01-13T08:10:49;9.00;99.90
29803;DHT22;16702;50.898;4.662;2023-01-13T08:13:19;9.00;99.90
29803;DHT22;16702;50.898;4.662;2023-01-13T08:15:52;9.10;99.90
29803;DHT22;16702;50.898;4.662;2023-01-13T08:18:22;9.00;99.90
29803;DHT22;16702;50.898;4.662;2023-01-13T08:20:53;9.00;99.90
29803;DHT22;16702;50.898;4.662;2023-01-13T08:23:23;9.00;99.90
29803;DHT22;16702;50.898;4.662;2023-01-13T08:25:58;9.00;99.90
29803;DHT22;16702;50.898;4.662;2023-01-13T08:28:29;9.00;99.90
29803;DHT22;16702;50.898;4.662;2023-01-13T08:31:01;9.00;99.90
29803;DHT22;16702;50.898;4.662;2023-01-13T08:33:32;9.00;99.90
29803;DHT22;16702;50.898;4.662;2023-01-13T08:36:03;9.00;99.90
29803;DHT22;16702;50.898;4.662;2023-01-13T08:38:34;9.00;99.90
29803;DHT22;16702;50.898;4.662;2023-01-13T08:41:12;9.00;99.90
29803;DHT22;16702;50.898;4.662;2023-01-13T08:44:04;9.10;99.90
29803;DHT22;16702;50.898;4.662;2023-01-13T08:46:36;9.10;99.90
29803;DHT22;16702;50.898;4.662;2023-01-13T08:49:06;9.10;99.90
29803;DHT22;16702;50.898;4.662;2023-01-13T08:51:37;9.10;99.90
29803;DHT22;16702;50.898;4.662;2023-01-13T08:54:07;9.10;99.90
29803;DHT22;16702;50.898;4.662;2023-01-13T08:56:41;9.10;99.90
29803;DHT22;16702;50.898;4.662;2023-01-13T08:59:12;9.10;99.90
29803;DHT22;16702;50.898;4.662;2023-01-13T09:01:43;9.10;99.90
29803;DHT22;16702;50.898;4.662;2023-01-13T09:04:16;9.10;99.90
29803;DHT22;16702;50.898;4.662;2023-01-13T09:06:48;9.20;99.90
29803;DHT22;16702;50.898;4.662;2023-01-13T09:09:19;9.20;99.90
29803;DHT22;16702;50.898;4.662;2023-01-13T09:11:54;9.20;99.90
29803;DHT22;16702;50.898;4.662;2023-01-13T09:14:37;9.20;99.90
29803;DHT22;16702;50.898;4.662;2023-01-13T09:17:08;9.20;99.90
29803;DHT22;16702;50.898;4.662;2023-01-13T09:19:39;9.20;99.90
29803;DHT22;16702;50.898;4.662;2023-01-13T09:22:13;9.20;99.90
29803;DHT22;16702;50.898;4.662;2023-01-13T09:24:44;9.20;99.90
29803;DHT22;16702;50.898;4.662;2023-01-13T09:27:18;9.20;99.90
29803;DHT22;16702;50.898;4.662;2023-01-13T09:29:49;9.30;99.90
29803;DHT22;16702;50.898;4.662;2023-01-13T09:32:19;9.30;99.90
29803;DHT22;16702;50.898;4.662;2023-01-13T09:34:50;9.30;99.90
29803;DHT22;16702;50.898;4.662;2023-01-13T09:37:28;9.30;99.90
29803;DHT22;16702;50.898;4.662;2023-01-13T09:40:00;9.30;99.90
29803;DHT22;16702;50.898;4.662;2023-01-13T09:42:39;9.40;99.90
29803;DHT22;16702;50.898;4.662;2023-01-13T09:45:25;9.40;99.90
29803;DHT22;16702;50.898;4.662;2023-01-13T09:48:02;9.40;99.90
29803;DHT22;16702;50.898;4.662;2023-01-13T09:50:46;9.40;99.90
29803;DHT22;16702;50.898;4.662;2023-01-13T09:53:20;9.40;99.90
29803;DHT22;16702;50.898;4.662;2023-01-13T09:55:51;9.50;99.90
29803;DHT22;16702;50.898;4.662;2023-01-13T09:58:24;9.50;99.90
29803;DHT22;16702;50.898;4.662;2023-01-13T10:01:05;9.50;99.90
29803;DHT22;16702;50.898;4.662;2023-01-13T10:03:37;9.50;99.90
29803;DHT22;16702;50.898;4.662;2023-01-13T10:06:12;9.60;99.90
29803;DHT22;16702;50.898;4.662;2023-01-13T10:08:46;9.60;99.90
29803;DHT22;16702;50.898;4.662;2023-01-13T10:11:17;9.70;99.90
29803;DHT22;16702;50.898;4.662;2023-01-13T10:14:11;9.70;99.90
29803;DHT22;16702;50.898;4.662;2023-01-13T10:16:46;9.70;99.90
29803;DHT22;16702;50.898;4.662;2023-01-13T10:19:22;9.70;99.90
29803;DHT22;16702;50.898;4.662;2023-01-13T10:22:14;9.70;99.90
29803;DHT22;16702;50.898;4.662;2023-01-13T10:25:05;9.70;99.90
29803;DHT22;16702;50.898;4.662;2023-01-13T10:27:39;9.70;99.90
29803;DHT22;16702;50.898;4.662;2023-01-13T10:30:22;9.60;99.90
29803;DHT22;16702;50.898;4.662;2023-01-13T10:32:58;9.80;99.90
29803;DHT22;16702;50.898;4.662;2023-01-13T10:35:51;9.80;99.90
29803;DHT22;16702;50.898;4.662;2023-01-13T10:38:24;9.80;99.90
29803;DHT22;16702;50.898;4.662;2023-01-13T10:40:56;9.80;99.90
29803;DHT22;16702;50.898;4.662;2023-01-13T10:43:27;9.80;99.90
29803;DHT22;16702;50.898;4.662;2023-01-13T10:46:04;9.90;99.90
29803;DHT22;16702;50.898;4.662;2023-01-13T10:48:37;9.90;99.90
29803;DHT22;16702;50.898;4.662;2023-01-13T10:51:26;9.90;99.90
29803;DHT22;16702;50.898;4.662;2023-01-13T10:53:59;9.80;99.90
29803;DHT22;16702;50.898;4.662;2023-01-13T10:56:32;9.90;99.90
29803;DHT22;16702;50.898;4.662;2023-01-13T10:59:13;9.80;99.90
29803;DHT22;16702;50.898;4.662;2023-01-13T11:01:58;9.80;99.90
29803;DHT22;16702;50.898;4.662;2023-01-13T11:04:59;9.80;99.90
29803;DHT22;16702;50.898;4.662;2023-01-13T11:07:32;9.70;99.90
29803;DHT22;16702;50.898;4.662;2023-01-13T11:10:17;9.70;99.90
29803;DHT22;16702;50.898;4.662;2023-01-13T11:12:57;9.70;99.90
29803;DHT22;16702;50.898;4.662;2023-01-13T11:15:37;9.60;99.90
29803;DHT22;16702;50.898;4.662;2023-01-13T11:18:17;9.50;99.90
29803;DHT22;16702;50.898;4.662;2023-01-13T11:20:50;9.50;99.90
29803;DHT22;16702;50.898;4.662;2023-01-13T11:23:26;9.50;99.90
29803;DHT22;16702;50.898;4.662;2023-01-13T11:26:02;9.50;99.90
29803;DHT22;16702;50.898;4.662;2023-01-13T11:28:48;9.50;99.90
29803;DHT22;16702;50.898;4.662;2023-01-13T11:31:25;9.50;99.90
29803;DHT22;16702;50.898;4.662;2023-01-13T11:34:03;9.50;99.90
29803;DHT22;16702;50.898;4.662;2023-01-13T11:36:39;9.40;99.90
29803;DHT22;16702;50.898;4.662;2023-01-13T11:39:18;9.50;99.90
29803;DHT22;16702;50.898;4.662;2023-01-13T11:41:54;9.50;99.90
29803;DHT22;16702;50.898;4.662;2023-01-13T11:44:42;9.50;99.90
29803;DHT22;16702;50.898;4.662;2023-01-13T11:47:15;9.50;99.90
29803;DHT22;16702;50.898;4.662;2023-01-13T11:49:50;9.50;99.90
29803;DHT22;16702;50.898;4.662;2023-01-13T11:52:25;9.50;99.90
29803;DHT22;16702;50.898;4.662;2023-01-13T11:55:15;9.60;99.90
29803;DHT22;16702;50.898;4.662;2023-01-13T11:58:07;9.60;99.90
29803;DHT22;16702;50.898;4.662;2023-01-13T12:03:49;9.60;99.90
29803;DHT22;16702;50.898;4.662;2023-01-13T12:06:30;9.70;99.90
29803;DHT22;16702;50.898;4.662;2023-01-13T12:09:13;9.70;99.90
29803;DHT22;16702;50.898;4.662;2023-01-13T12:11:59;9.70;99.90
29803;DHT22;16702;50.898;4.662;2023-01-13T12:15:13;9.70;99.90
29803;DHT22;16702;50.898;4.662;2023-01-13T12:17:53;9.70;99.90
29803;DHT22;16702;50.898;4.662;2023-01-13T12:20:32;9.80;99.90
29803;DHT22;16702;50.898;4.662;2023-01-13T12:23:11;9.70;99.90
29803;DHT22;16702;50.898;4.662;2023-01-13T12:25:49;9.70;99.90
29803;DHT22;16702;50.898;4.662;2023-01-13T12:28:24;9.70;99.90
29803;DHT22;16702;50.898;4.662;2023-01-13T12:31:00;9.80;99.90
29803;DHT22;16702;50.898;4.662;2023-01-13T12:36:27;9.80;99.90
29803;DHT22;16702;50.898;4.662;2023-01-13T12:39:06;9.90;99.90
29803;DHT22;16702;50.898;4.662;2023-01-13T12:41:43;9.80;99.90
29803;DHT22;16702;50.898;4.662;2023-01-13T12:44:26;9.90;99.90
29803;DHT22;16702;50.898;4.662;2023-01-13T12:46:57;9.90;99.90
29803;DHT22;16702;50.898;4.662;2023-01-13T12:49:29;9.90;99.90
29803;DHT22;16702;50.898;4.662;2023-01-13T12:52:18;9.90;99.90
29803;DHT22;16702;50.898;4.662;2023-01-13T12:58:13;9.80;99.90
29803;DHT22;16702;50.898;4.662;2023-01-13T13:00:59;9.80;99.90
29803;DHT22;16702;50.898;4.662;2023-01-13T13:03:34;9.80;99.90
29803;DHT22;16702;50.898;4.662;2023-01-13T13:06:12;9.90;99.90
29803;DHT22;16702;50.898;4.662;2023-01-13T13:08:59;9.90;99.90
29803;DHT22;16702;50.898;4.662;2023-01-13T13:11:39;9.80;99.90
29803;DHT22;16702;50.898;4.662;2023-01-13T13:14:58;9.80;99.90
29803;DHT22;16702;50.898;4.662;2023-01-13T13:17:42;9.80;99.90
29803;DHT22;16702;50.898;4.662;2023-01-13T13:23:37;9.80;99.90
29803;DHT22;16702;50.898;4.662;2023-01-13T13:26:27;9.80;99.90
29803;DHT22;16702;50.898;4.662;2023-01-13T13:29:29;9.80;99.90
29803;DHT22;16702;50.898;4.662;2023-01-13T13:35:16;9.80;99.90
29803;DHT22;16702;50.898;4.662;2023-01-13T13:37:59;9.80;99.90
29803;DHT22;16702;50.898;4.662;2023-01-13T13:41:07;9.80;99.90
29803;DHT22;16702;50.898;4.662;2023-01-13T13:43:52;9.80;99.90
29803;DHT22;16702;50.898;4.662;2023-01-13T13:46:46;9.80;99.90
29803;DHT22;16702;50.898;4.662;2023-01-13T13:49:18;9.90;99.90
29803;DHT22;16702;50.898;4.662;2023-01-13T13:51:57;9.90;99.90
29803;DHT22;16702;50.898;4.662;2023-01-13T13:54:30;9.90;99.90
29803;DHT22;16702;50.898;4.662;2023-01-13T13:57:01;9.90;99.90
29803;DHT22;16702;50.898;4.662;2023-01-13T13:59:32;9.90;99.90
29803;DHT22;16702;50.898;4.662;2023-01-13T14:02:16;9.90;99.90
29803;DHT22;16702;50.898;4.662;2023-01-13T14:04:47;9.90;99.90
29803;DHT22;16702;50.898;4.662;2023-01-13T14:07:19;9.90;99.90
29803;DHT22;16702;50.898;4.662;2023-01-13T14:09:51;10.00;99.90
29803;DHT22;16702;50.898;4.662;2023-01-13T14:12:25;10.00;99.90
29803;DHT22;16702;50.898;4.662;2023-01-13T14:14:56;10.00;99.90
29803;DHT22;16702;50.898;4.662;2023-01-13T14:17:30;10.00;99.90
29803;DHT22;16702;50.898;4.662;2023-01-13T14:20:03;10.00;99.90
29803;DHT22;16702;50.898;4.662;2023-01-13T14:22:36;10.00;99.90
29803;DHT22;16702;50.898;4.662;2023-01-13T14:25:27;10.00;99.90
29803;DHT22;16702;50.898;4.662;2023-01-13T14:28:13;10.00;99.90
29803;DHT22;16702;50.898;4.662;2023-01-13T14:30:46;10.00;99.90
29803;DHT22;16702;50.898;4.662;2023-01-13T14:33:22;10.00;99.90
29803;DHT22;16702;50.898;4.662;2023-01-13T14:36:14;10.00;99.90
29803;DHT22;16702;50.898;4.662;2023-01-13T14:38:46;10.00;99.90
29803;DHT22;16702;50.898;4.662;2023-01-13T14:41:20;10.10;99.90
29803;DHT22;16702;50.898;4.662;2023-01-13T14:43:53;10.10;99.90
29803;DHT22;16702;50.898;4.662;2023-01-13T14:46:36;10.10;99.90
29803;DHT22;16702;50.898;4.662;2023-01-13T14:49:21;10.10;99.90
29803;DHT22;16702;50.898;4.662;2023-01-13T14:51:53;10.10;99.90
29803;DHT22;16702;50.898;4.662;2023-01-13T14:54:46;10.10;99.90
29803;DHT22;16702;50.898;4.662;2023-01-13T14:57:27;10.10;99.90
29803;DHT22;16702;50.898;4.662;2023-01-13T15:00:05;10.10;99.90
29803;DHT22;16702;50.898;4.662;2023-01-13T15:02:48;10.00;99.90
29803;DHT22;16702;50.898;4.662;2023-01-13T15:05:42;10.00;99.90
29803;DHT22;16702;50.898;4.662;2023-01-13T15:08:40;10.10;99.90
29803;DHT22;16702;50.898;4.662;2023-01-13T15:11:21;10.10;99.90
29803;DHT22;16702;50.898;4.662;2023-01-13T15:13:57;10.10;99.90
29803;DHT22;16702;50.898;4.662;2023-01-13T15:16:28;10.00;99.90
29803;DHT22;16702;50.898;4.662;2023-01-13T15:19:01;10.00;99.90
29803;DHT22;16702;50.898;4.662;2023-01-13T15:21:34;10.00;99.90
29803;DHT22;16702;50.898;4.662;2023-01-13T15:24:05;10.00;99.90
29803;DHT22;16702;50.898;4.662;2023-01-13T15:26:36;10.10;99.90
29803;DHT22;16702;50.898;4.662;2023-01-13T15:29:11;10.00;99.90
29803;DHT22;16702;50.898;4.662;2023-01-13T15:31:42;10.00;99.90
29803;DHT22;16702;50.898;4.662;2023-01-13T15:34:12;10.00;99.90
29803;DHT22;16702;50.898;4.662;2023-01-13T15:36:45;10.00;99.90
29803;DHT22;16702;50.898;4.662;2023-01-13T15:39:16;10.00;99.90
29803;DHT22;16702;50.898;4.662;2023-01-13T15:41:46;10.00;99.90
29803;DHT22;16702;50.898;4.662;2023-01-13T15:44:29;10.00;99.90
29803;DHT22;16702;50.898;4.662;2023-01-13T15:47:21;10.00;99.90
29803;DHT22;16702;50.898;4.662;2023-01-13T15:49:51;10.00;99.90
29803;DHT22;16702;50.898;4.662;2023-01-13T15:52:26;10.00;99.90
29803;DHT22;16702;50.898;4.662;2023-01-13T15:54:57;10.00;99.90
29803;DHT22;16702;50.898;4.662;2023-01-13T15:57:29;9.90;99.90
29803;DHT22;16702;50.898;4.662;2023-01-13T16:00:03;9.90;99.90
29803;DHT22;16702;50.898;4.662;2023-01-13T16:02:36;9.90;99.90
29803;DHT22;16702;50.898;4.662;2023-01-13T16:05:07;9.90;99.90
29803;DHT22;16702;50.898;4.662;2023-01-13T16:07:40;9.90;99.90
29803;DHT22;16702;50.898;4.662;2023-01-13T16:10:16;9.80;99.90
29803;DHT22;16702;50.898;4.662;2023-01-13T16:12:46;9.80;99.90
29803;DHT22;16702;50.898;4.662;2023-01-13T16:15:18;9.80;99.90
29803;DHT22;16702;50.898;4.662;2023-01-13T16:17:54;9.80;99.90
29803;DHT22;16702;50.898;4.662;2023-01-13T16:20:25;9.80;99.90
29803;DHT22;16702;50.898;4.662;2023-01-13T16:22:59;9.80;99.90
29803;DHT22;16702;50.898;4.662;2023-01-13T16:25:29;9.80;99.90
29803;DHT22;16702;50.898;4.662;2023-01-13T16:28:00;9.80;99.90
29803;DHT22;16702;50.898;4.662;2023-01-13T16:30:32;9.70;99.90
29803;DHT22;16702;50.898;4.662;2023-01-13T16:33:03;9.70;99.90
29803;DHT22;16702;50.898;4.662;2023-01-13T16:35:33;9.70;99.90
29803;DHT22;16702;50.898;4.662;2023-01-13T16:38:27;9.60;99.90
29803;DHT22;16702;50.898;4.662;2023-01-13T16:40:57;9.70;99.90
29803;DHT22;16702;50.898;4.662;2023-01-13T16:43:28;9.70;99.90
29803;DHT22;16702;50.898;4.662;2023-01-13T16:45:58;9.70;99.90
29803;DHT22;16702;50.898;4.662;2023-01-13T16:48:29;9.80;99.90
29803;DHT22;16702;50.898;4.662;2023-01-13T16:50:59;9.80;99.90
29803;DHT22;16702;50.898;4.662;2023-01-13T16:53:34;9.80;99.90